createdAt,value
2018-09-17T16:14:08.429Z,2.30
2018-09-17T16:16:36.883Z,2.20
2018-09-17T16:19:05.553Z,2.27
2018-09-17T16:21:34.011Z,2.10
2018-09-17T16:24:02.489Z,2.10
2018-09-17T16:26:34.094Z,2.40
2018-09-17T16:29:02.654Z,2.73
2018-09-17T16:31:32.137Z,2.50
2018-09-17T16:34:00.670Z,2.30
2018-09-17T16:36:29.254Z,1.90
2018-09-17T16:38:57.728Z,2.03
2018-09-17T16:41:26.173Z,2.10
2018-09-17T16:43:54.822Z,1.87
2018-09-17T16:46:23.382Z,2.43
2018-09-17T16:48:52.951Z,2.60
2018-09-17T16:51:21.417Z,2.50
2018-09-17T16:53:49.958Z,2.93
2018-09-17T16:56:19.051Z,2.20
2018-09-17T16:58:47.654Z,2.20
2018-09-17T17:01:16.091Z,2.63
2018-09-17T17:03:44.625Z,2.37
2018-09-17T17:06:13.106Z,2.50
2018-09-17T17:08:41.571Z,2.30
2018-09-17T17:11:10.037Z,2.90
2018-09-17T17:13:38.577Z,2.80
2018-09-17T17:16:07.137Z,2.27
2018-09-17T17:18:35.610Z,2.60
2018-09-17T17:21:04.036Z,2.23
2018-09-17T17:23:32.495Z,2.43
2018-09-17T17:26:00.929Z,2.70
2018-09-17T17:28:30.369Z,2.60
2018-09-17T17:30:58.814Z,3.30
2018-09-17T17:33:28.170Z,3.30
2018-09-17T17:35:56.630Z,3.30
2018-09-17T17:38:25.109Z,2.60
2018-09-17T17:40:53.549Z,2.23
2018-09-17T17:43:22.217Z,2.57
2018-09-17T17:45:50.681Z,2.70
2018-09-17T17:48:19.134Z,3.10
2018-09-17T17:50:47.600Z,2.73
2018-09-17T17:53:16.033Z,3.00
2018-09-17T17:55:44.557Z,3.80
2018-09-17T17:58:13.119Z,3.27
2018-09-17T18:00:41.521Z,3.23
2018-09-17T18:03:10.001Z,3.97
2018-09-17T18:05:38.442Z,3.33
2018-09-17T18:08:06.905Z,4.50
2018-09-17T18:10:35.456Z,3.60
2018-09-17T18:13:04.053Z,4.63
2018-09-17T18:15:32.503Z,4.07
2018-09-17T18:18:00.981Z,3.73
2018-09-17T18:20:29.454Z,3.77
2018-09-17T18:22:57.937Z,4.80
2018-09-17T18:25:26.401Z,3.30
2018-09-17T18:27:54.850Z,3.73
2018-09-17T18:30:23.333Z,3.17
2018-09-17T18:32:51.853Z,4.00
2018-09-17T18:35:20.270Z,3.50
2018-09-17T18:37:52.410Z,4.00
2018-09-17T18:40:21.032Z,3.90
2018-09-17T18:42:49.544Z,3.57
2018-09-17T18:45:18.089Z,3.73
2018-09-17T18:47:46.483Z,4.03
2018-09-17T18:50:15.020Z,3.50
2018-09-17T18:52:43.476Z,3.53
2018-09-17T18:55:11.966Z,4.47
2018-09-17T18:57:40.425Z,4.83
2018-09-17T19:00:09.524Z,6.50
2018-09-17T19:02:37.974Z,3.93
2018-09-17T19:05:06.557Z,4.30
2018-09-17T19:07:35.030Z,4.47
2018-09-17T19:10:03.606Z,4.40
2018-09-17T19:12:32.117Z,4.03
2018-09-17T19:15:05.804Z,5.10
2018-09-17T19:17:39.851Z,3.70
2018-09-17T19:20:09.628Z,4.50
2018-09-17T19:22:43.334Z,4.07
2018-09-17T19:25:14.174Z,4.80
2018-09-17T19:27:47.915Z,4.40
2018-09-17T19:30:16.713Z,3.97
2018-09-17T19:32:45.365Z,4.60
2018-09-17T19:35:13.844Z,4.27
2018-09-17T19:37:47.620Z,4.83
2018-09-17T19:40:17.657Z,4.87
2018-09-17T19:42:47.969Z,6.83
2018-09-17T19:45:22.713Z,5.03
2018-09-17T19:47:52.072Z,4.60
2018-09-17T19:50:26.019Z,5.30
2018-09-17T19:52:54.930Z,4.50
2018-09-17T19:55:23.417Z,4.70
2018-09-17T19:57:57.096Z,4.83
2018-09-17T20:00:25.617Z,5.73
2018-09-17T20:02:54.052Z,5.33
2018-09-17T20:05:27.861Z,4.67
2018-09-17T20:07:56.428Z,5.00
2018-09-17T20:10:24.867Z,5.00
2018-09-17T20:12:53.517Z,4.90
2018-09-17T20:15:21.988Z,5.00
2018-09-17T20:17:50.421Z,5.20
2018-09-17T20:20:19.349Z,5.47
2018-09-17T20:22:47.817Z,4.60
2018-09-17T20:25:16.287Z,4.30
2018-09-17T20:27:44.738Z,5.10
2018-09-17T20:30:13.267Z,5.17
2018-09-17T20:32:41.770Z,5.50
2018-09-17T20:35:10.238Z,5.20
2018-09-17T20:37:38.686Z,5.00
2018-09-17T20:40:07.274Z,4.53
2018-09-17T20:42:35.749Z,4.90
2018-09-17T20:45:04.276Z,3.87
2018-09-17T20:47:32.741Z,4.40
2018-09-17T20:50:01.247Z,4.77
2018-09-17T20:52:29.689Z,5.70
2018-09-17T20:54:58.230Z,4.90
2018-09-17T20:57:26.714Z,4.43
2018-09-17T20:59:55.185Z,4.47
2018-09-17T21:02:23.979Z,3.97
2018-09-17T21:04:52.549Z,5.20
2018-09-17T21:07:21.109Z,5.80
2018-09-17T21:09:49.490Z,4.67
2018-09-17T21:12:18.156Z,4.97
2018-09-17T21:14:46.622Z,5.57
2018-09-17T21:17:15.086Z,5.20
2018-09-17T21:19:43.533Z,4.83
2018-09-17T21:22:12.068Z,5.27
2018-09-17T21:24:40.587Z,5.27
2018-09-17T21:27:08.999Z,4.93
2018-09-17T21:29:37.501Z,5.03
2018-09-17T21:32:06.632Z,4.93
2018-09-17T21:34:35.147Z,4.93
2018-09-17T21:37:03.637Z,5.03
2018-09-17T21:39:32.816Z,4.20
2018-09-17T21:42:01.289Z,4.40
2018-09-17T21:44:29.748Z,4.73
2018-09-17T21:46:58.217Z,4.80
2018-09-17T21:49:26.765Z,4.70
2018-09-17T21:51:55.214Z,5.60
2018-09-17T21:54:23.691Z,5.37
2018-09-17T21:56:52.135Z,4.90
2018-09-17T21:59:21.272Z,4.53
2018-09-17T22:01:49.700Z,5.20
2018-09-17T22:04:18.175Z,5.00
2018-09-17T22:06:46.624Z,5.43
2018-09-17T22:09:15.115Z,4.77
2018-09-17T22:11:43.636Z,4.90
2018-09-17T22:14:12.055Z,4.70
2018-09-17T22:16:40.588Z,4.10
2018-09-17T22:19:09.150Z,4.90
2018-09-17T22:21:37.591Z,4.43
2018-09-17T22:24:06.068Z,5.40
2018-09-17T22:26:34.538Z,4.40
2018-09-17T22:29:03.050Z,6.70
2018-09-17T22:31:31.482Z,5.90
2018-09-17T22:34:00.000Z,5.07
2018-09-17T22:36:28.414Z,5.10
2018-09-17T22:38:56.850Z,5.00
2018-09-17T22:41:25.350Z,5.23
2018-09-17T22:43:53.789Z,6.07
2018-09-17T22:46:22.257Z,4.37
2018-09-17T22:48:50.680Z,5.07
2018-09-17T22:51:19.101Z,4.83
2018-09-17T22:53:47.609Z,4.50
2018-09-17T22:56:16.049Z,5.93
2018-09-17T22:58:44.514Z,4.83
2018-09-17T23:01:12.971Z,4.90
2018-09-17T23:03:41.452Z,4.23
2018-09-17T23:06:09.895Z,5.10
2018-09-17T23:08:38.357Z,4.47
2018-09-17T23:11:07.157Z,6.33
2018-09-17T23:13:35.629Z,4.60
2018-09-17T23:16:04.103Z,4.60
2018-09-17T23:18:32.581Z,4.27
2018-09-17T23:21:01.047Z,4.60
2018-09-17T23:23:29.479Z,4.40
2018-09-17T23:25:57.942Z,4.63
2018-09-17T23:28:26.390Z,4.40
2018-09-17T23:30:54.874Z,4.30
2018-09-17T23:33:23.336Z,4.77
2018-09-17T23:35:51.768Z,4.50
2018-09-17T23:38:20.216Z,3.97
2018-09-17T23:40:48.721Z,4.90
2018-09-17T23:43:17.185Z,4.70
2018-09-17T23:45:45.618Z,4.70
2018-09-17T23:48:14.074Z,4.53
2018-09-17T23:50:42.505Z,3.90
2018-09-17T23:53:10.982Z,4.37
2018-09-17T23:55:39.464Z,4.77
2018-09-17T23:58:07.906Z,3.70
